Latest Weather Observations for Mildura

IDV60801

Issued at 10:05 pm EST Saturday 30 August 2014 (issued every 30 minutes, with the page automatically refreshed every 10 minutes)

About weather observations | Map of weather stations | Latest weather observations for VIC | Other Formats
Station Details ID: 076031 Name: MILDURA AIRPORT Lat: -34.24 Lon: 142.09 Height: 50.0 m
Data from the previous 72 hours. | See also: Recent months at Mildura
Date/Time
EST
Temp
°C
App
Temp
°C
Dew
Point
Rel
Hum
%
Delta-T
°C
Wind Press
QNH
hPa
Press
MSL
hPa
Rain
since 9 am
mm
Dir
 
Spd
km/h
Gust
km/h
Spd
kts
Gust
kts
30/10:00pm 13.5 10.8 3.5 51 4.5 E 7 7 4 4 1020.2 1020.2 0.0
30/09:30pm 14.3 11.8 4.8 53 4.4 E 7 7 4 4 1020.3 1020.3 0.0
30/09:00pm 14.5 11.8 3.5 47 5.0 E 7 9 4 5 1020.4 1020.4 0.0
30/08:30pm 14.6 12.2 5.3 53 4.4 E 7 9 4 5 1020.4 1020.4 0.0
30/08:00pm 15.6 13.1 3.6 44 5.5 E 6 7 3 4 1020.4 1020.4 0.0
30/07:30pm 16.7 14.9 5.2 46 5.5 E 4 9 2 5 1020.4 1020.4 0.0
30/07:00pm 17.7 15.2 3.8 39 6.5 SE 6 7 3 4 1020.3 1020.3 0.0
30/06:30pm 19.0 17.7 4.1 37 7.1 CALM 0 0 0 0 1020.0 1020.0 0.0
30/06:00pm 22.4 20.9 2.9 27 9.3 CALM 0 0 0 0 1019.9 1019.9 0.0
30/05:30pm 24.2 20.9 0.2 20 11.0 W 7 9 4 5 1019.8 1019.8 0.0
30/05:00pm 24.9 22.5 2.1 22 10.9 NW 4 9 2 5 1019.8 1019.8 0.0
30/04:30pm 24.6 20.9 -0.1 19 11.3 SSW 9 13 5 7 1019.7 1019.7 0.0
30/04:00pm 24.8 21.5 0.4 20 11.3 WSW 7 13 4 7 1019.8 1019.8 0.0
30/03:30pm 24.9 20.7 -0.7 18 11.6 WNW 11 15 6 8 1020.1 1020.1 0.0
30/03:00pm 25.4 22.0 -0.3 18 11.8 W 7 15 4 8 1020.3 1020.3 0.0
30/02:30pm 25.1 21.9 0.6 20 11.4 W 7 13 4 7 1020.6 1020.6 0.0
30/02:00pm 24.4 21.0 1.8 22 10.7 W 9 17 5 9 1021.2 1021.2 0.0
30/01:30pm 24.5 20.9 0.5 20 11.1 WNW 9 15 5 8 1021.7 1021.7 0.0
30/01:00pm 23.6 20.2 2.0 24 10.2 WSW 9 17 5 9 1022.2 1022.2 0.0
30/12:30pm 23.3 19.5 1.7 24 10.1 W 11 17 6 9 1022.7 1022.7 0.0
30/12:00pm 22.7 20.2 3.7 29 9.2 SW 6 13 3 7 1023.1 1023.1 0.0
30/11:30am 22.5 20.0 4.9 31 8.7 W 7 13 4 7 1023.4 1023.4 0.0
30/11:00am 21.4 19.2 5.2 34 8.0 NW 6 9 3 5 1023.9 1023.9 0.0
30/10:30am 20.2 18.0 5.3 37 7.3 WNW 6 7 3 4 1024.3 1024.3 0.0
30/10:00am 18.2 16.7 5.1 42 6.3 NW 2 7 1 4 1024.5 1024.5 0.0
30/09:30am 16.1 15.1 5.7 50 5.0 CALM 0 0 0 0 1024.6 1024.6 0.0
30/09:00am 13.9 11.7 5.4 56 4.0 ENE 6 7 3 4 1024.7 1024.7 0.0
30/08:30am 11.3 8.7 4.4 62 3.1 E 7 11 4 6 1024.8 1024.8 0.0
30/08:00am 9.1 7.8 4.3 72 2.1 CALM 0 6 0 3 1024.8 1024.8 0.0
30/07:30am 5.2 2.5 2.7 84 1.0 SSE 6 7 3 4 1024.6 1024.6 0.0
30/07:00am 4.8 1.9 2.6 86 0.9 SE 7 9 4 5 1024.4 1024.4 0.0
30/06:30am 4.8 2.0 2.3 84 1.0 SSE 6 7 3 4 1024.2 1024.2 0.0
30/06:00am 5.4 2.6 2.2 80 1.3 SSE 6 7 3 4 1024.0 1024.0 0.0
30/05:30am 5.7 3.0 2.8 81 1.2 S 6 7 3 4 1023.9 1023.9 0.0
30/05:00am 6.7 3.4 2.3 73 1.8 SSE 9 11 5 6 1023.9 1023.9 0.0
30/04:30am 7.2 3.8 2.1 70 2.1 S 9 11 5 6 1023.9 1023.9 0.0
30/04:00am 7.4 4.0 2.0 68 2.2 S 9 11 5 6 1023.9 1023.9 0.0
30/03:30am 7.8 4.8 2.0 67 2.4 SSW 7 9 4 5 1023.9 1023.9 0.0
30/03:00am 7.9 5.0 2.6 69 2.2 S 7 9 4 5 1023.9 1023.9 0.0
30/02:30am 8.6 5.7 2.4 65 2.6 S 7 9 4 5 1024.1 1024.1 0.0
30/02:00am 8.8 5.9 2.6 65 2.6 S 7 9 4 5 1024.4 1024.4 0.0
30/01:30am 9.4 6.5 2.8 63 2.8 S 7 9 4 5 1024.5 1024.5 0.0
30/01:00am 10.1 7.1 2.3 58 3.3 S 7 9 4 5 1024.6 1024.6 0.0
30/12:30am 10.0 6.7 2.2 58 3.3 S 9 9 5 5 1024.7 1024.7 0.0
30/12:00am 11.0 7.6 1.7 52 3.9 S 9 11 5 6 1024.9 1024.9 0.0
 
Date/Time
EST
Temp
°C
App
Temp
°C
Dew
Point
Rel
Hum
%
Delta-T
°C
Wind Press
QNH
hPa
Press
MSL
hPa
Rain
since 9 am
mm
Dir
 
Spd
km/h
Gust
km/h
Spd
kts
Gust
kts
29/11:30pm 11.2 7.4 2.0 53 3.9 SSW 11 13 6 7 1024.9 1024.9 0.0
29/11:00pm 11.1 7.8 2.2 54 3.8 S 9 9 5 5 1024.9 1024.9 0.0
29/10:30pm 10.7 8.1 3.1 59 3.3 S 6 7 3 4 1024.9 1024.9 0.0
29/10:00pm 11.5 8.8 2.4 53 3.9 S 6 7 3 4 1025.0 1025.0 0.0
29/09:37pm 11.6 9.0 3.1 56 3.7 S 6 7 3 4 1024.9 1024.9 0.0
29/09:30pm 11.9 9.3 4.1 59 3.5 S 7 7 4 4 1024.9 1024.9 0.0
29/09:00pm 12.9 9.9 2.3 48 4.6 S 7 7 4 4 1024.9 1024.9 0.0
29/08:36pm 13.6 10.9 2.4 46 4.9 S 6 7 3 4 1024.9 1024.9 0.0
29/08:30pm 13.9 11.1 1.9 44 5.2 S 6 7 3 4 1024.9 1024.9 0.0
29/08:00pm 15.0 12.4 3.0 44 5.4 SSE 6 7 3 4 1024.8 1024.8 0.0
29/07:30pm 16.0 13.4 4.1 45 5.5 SE 7 9 4 5 1024.8 1024.8 0.0
29/07:00pm 17.0 14.2 2.0 36 6.7 SE 6 7 3 4 1024.7 1024.7 0.0
29/06:30pm 18.4 15.5 1.4 32 7.6 SE 6 6 3 3 1024.7 1024.7 0.0
29/06:00pm 21.0 17.7 0.1 24 9.3 SE 7 13 4 7 1024.6 1024.6 0.0
29/05:30pm 23.0 18.7 -1.7 19 10.8 SE 11 17 6 9 1024.5 1024.5 0.0
29/05:00pm 23.9 19.1 -2.7 17 11.5 SSE 13 19 7 10 1024.5 1024.5 0.0
29/04:30pm 24.2 19.6 -1.1 18 11.4 S 13 19 7 10 1024.6 1024.6 0.0
29/04:00pm 24.6 19.8 0.2 20 11.2 SSE 15 24 8 13 1024.5 1024.5 0.0
29/03:30pm 24.6 20.2 0.6 20 11.2 S 13 22 7 12 1024.8 1024.8 0.0
29/03:00pm 24.4 20.1 1.3 22 10.8 S 13 22 7 12 1025.1 1025.2 0.0
29/02:30pm 24.0 20.0 0.5 21 10.9 S 11 20 6 11 1025.5 1025.6 0.0
29/02:00pm 23.6 19.9 2.3 24 10.1 S 11 22 6 12 1025.8 1025.9 0.0
29/01:30pm 23.1 19.0 2.4 25 9.8 S 13 22 7 12 1026.2 1026.3 0.0
29/01:00pm 23.4 19.4 2.6 25 9.9 SSE 13 20 7 11 1026.7 1026.8 0.0
29/12:30pm 22.5 20.1 4.2 30 9.0 SW 6 13 3 7 1027.3 1027.4 0.0
29/12:00pm 22.0 19.4 4.3 31 8.6 ESE 7 11 4 6 1027.7 1027.8 0.0
29/11:30am 21.4 18.9 4.8 33 8.2 SSE 7 15 4 8 1028.1 1028.2 0.0
29/11:00am 20.7 18.5 5.2 36 7.6 W 6 9 3 5 1028.2 1028.3 0.0
29/10:30am 20.2 18.6 4.4 35 7.6 NW 2 9 1 5 1028.3 1028.4 0.0
29/10:00am 18.0 16.9 5.3 43 6.1 CALM 0 0 0 0 1028.6 1028.7 0.0
29/09:30am 16.5 15.4 5.1 47 5.4 CALM 0 0 0 0 1028.8 1028.9 0.0
29/09:00am 14.0 11.8 5.5 56 4.0 ESE 6 7 3 4 1029.0 1029.1 0.0
29/08:30am 11.2 8.9 4.8 64 2.9 S 6 7 3 4 1029.0 1029.1 0.0
29/08:00am 8.9 7.3 4.3 73 2.0 SSW 2 7 1 4 1028.8 1028.9 0.0
29/07:30am 5.7 4.0 3.8 87 0.8 SW 2 6 1 3 1028.8 1028.9 0.0
29/07:00am 5.0 2.8 3.5 90 0.6 SW 4 7 2 4 1028.6 1028.7 0.0
29/06:30am 5.4 3.2 3.5 87 0.8 SSW 4 6 2 3 1028.4 1028.5 0.0
29/06:00am 5.8 3.1 3.9 88 0.8 SSW 7 9 4 5 1028.1 1028.2 0.0
29/05:30am 6.0 4.7 3.9 86 0.9 CALM 0 0 0 0 1027.7 1027.8 0.0
29/05:00am 6.3 3.8 3.9 85 1.0 S 6 7 3 4 1027.6 1027.7 0.0
29/04:30am 6.8 4.3 4.0 82 1.2 S 6 9 3 5 1027.5 1027.6 0.0
29/04:00am 8.2 5.5 3.8 74 1.9 S 7 9 4 5 1027.3 1027.4 0.0
29/03:30am 6.9 3.8 3.8 81 1.3 S 9 11 5 6 1027.2 1027.3 0.0
29/03:00am 8.1 6.8 3.9 75 1.8 CALM 0 4 0 2 1027.3 1027.4 0.0
29/02:30am 7.8 6.2 4.3 78 1.5 E 2 6 1 3 1027.3 1027.4 0.0
29/02:00am 8.2 5.8 4.3 76 1.7 S 6 7 3 4 1027.6 1027.7 0.0
29/01:30am 8.7 6.4 4.9 77 1.7 S 6 7 3 4 1027.9 1028.0 0.0
29/01:00am 9.1 6.7 4.3 72 2.1 SSW 6 7 3 4 1027.9 1028.0 0.0
29/12:30am 10.1 7.1 3.9 65 2.7 SSW 9 11 5 6 1028.1 1028.2 0.0
29/12:00am 9.5 6.5 4.0 68 2.4 SW 9 11 5 6 1028.0 1028.1 0.0
 
Date/Time
EST
Temp
°C
App
Temp
°C
Dew
Point
Rel
Hum
%
Delta-T
°C
Wind Press
QNH
hPa
Press
MSL
hPa
Rain
since 9 am
mm
Dir
 
Spd
km/h
Gust
km/h
Spd
kts
Gust
kts
28/11:30pm 9.7 8.4 4.2 68 2.4 CALM 0 0 0 0 1027.9 1028.0 0.0
28/11:00pm 10.1 8.7 3.7 64 2.8 CALM 0 0 0 0 1027.9 1028.0 0.0
28/10:30pm 11.1 10.1 5.4 68 2.6 CALM 0 0 0 0 1027.8 1027.9 0.0
28/10:29pm 11.1 10.1 5.4 68 2.6 CALM 0 0 0 0 1027.8 1027.9 0.0
28/10:13pm 11.5 10.2 4.1 60 3.3 CALM 0 0 0 0 1027.9 1028.0 0.0
28/10:00pm 11.6 10.3 4.0 59 3.4 CALM 0 0 0 0 1027.8 1027.9 0.0
28/09:30pm 12.0 9.9 5.8 66 2.9 SE 6 6 3 3 1027.8 1027.9 0.0
28/09:00pm 13.1 11.1 4.6 56 3.9 SE 4 6 2 3 1027.7 1027.8 0.0
28/08:30pm 13.9 11.9 4.3 52 4.4 SE 4 6 2 3 1027.6 1027.7 0.0
28/08:12pm 14.6 12.3 4.7 51 4.6 SE 6 6 3 3 1027.5 1027.6 0.0
28/08:00pm 14.8 12.5 4.7 51 4.7 SE 6 6 3 3 1027.5 1027.6 0.0
28/07:59pm 14.8 12.5 4.7 51 4.7 SE 6 6 3 3 1027.5 1027.6 0.0
28/07:30pm 15.4 13.1 5.0 50 4.9 SE 6 6 3 3 1027.3 1027.4 0.0
28/07:00pm 16.8 14.3 4.7 44 5.7 SE 7 9 4 5 1027.0 1027.1 0.0
28/06:30pm 18.0 16.0 6.4 46 5.7 SSE 6 7 3 4 1026.9 1027.0 0.0
28/06:00pm 20.3 17.3 4.0 34 7.8 SE 9 11 5 6 1026.7 1026.8 0.0
28/05:30pm 22.0 17.7 1.3 25 9.6 SSE 13 19 7 10 1026.6 1026.7 0.0
28/05:00pm 22.6 17.6 1.4 24 9.8 SSE 17 20 9 11 1026.6 1026.7 0.0
28/04:30pm 23.0 19.1 3.2 27 9.6 S 13 22 7 12 1026.5 1026.6 0.0
28/04:00pm 22.8 17.8 1.4 24 9.9 SSE 17 24 9 13 1026.5 1026.6 0.0
28/03:30pm 23.0 18.4 1.8 24 10.0 S 15 24 8 13 1026.6 1026.7 0.0
28/03:00pm 23.1 18.1 1.3 23 10.1 SSE 17 30 9 16 1026.8 1026.9 0.0
28/02:30pm 23.2 19.8 4.2 29 9.4 S 11 20 6 11 1027.0 1027.1 0.0
28/02:00pm 22.7 18.9 4.0 29 9.1 S 13 20 7 11 1027.2 1027.3 0.0
28/01:30pm 22.2 17.9 3.4 29 9.1 S 15 26 8 14 1027.5 1027.6 0.0
28/01:00pm 22.0 17.8 3.7 30 8.8 S 15 22 8 12 1028.1 1028.2 0.0
28/12:30pm 22.1 18.7 4.2 31 8.7 SSE 11 17 6 9 1028.3 1028.4 0.0
28/12:00pm 21.5 18.2 4.4 32 8.3 S 11 19 6 10 1028.7 1028.8 0.0
28/11:30am 20.9 18.6 5.8 37 7.5 ENE 7 11 4 6 1029.1 1029.2 0.0
28/11:00am 20.5 18.6 6.6 40 7.0 N 6 9 3 5 1029.4 1029.5 0.0
28/10:30am 18.8 16.9 6.5 44 6.1 NNE 6 11 3 6 1029.4 1029.5 0.0
28/10:00am 17.8 15.7 6.7 48 5.5 NNE 7 11 4 6 1029.3 1029.4 0.0
28/09:30am 16.2 13.7 6.6 53 4.7 NE 9 13 5 7 1029.3 1029.4 0.0
28/09:00am 13.9 11.4 6.4 60 3.6 ENE 9 13 5 7 1029.3 1029.4 0.0
28/08:30am 11.9 9.9 6.1 67 2.7 ESE 6 7 3 4 1029.3 1029.4 0.0
28/08:00am 8.4 7.2 4.8 78 1.6 CALM 0 0 0 0 1029.1 1029.2 0.0
28/07:30am 5.8 3.4 4.4 91 0.6 SSE 6 7 3 4 1028.8 1028.9 0.0
28/07:00am 5.1 2.6 3.9 92 0.5 S 6 7 3 4 1028.5 1028.6 0.0
28/06:30am 5.8 3.4 4.1 89 0.7 S 6 9 3 5 1028.1 1028.2 0.0
28/06:00am 6.8 3.8 4.2 83 1.1 S 9 11 5 6 1027.9 1028.0 0.0
28/05:30am 6.1 3.5 4.0 86 0.9 S 7 11 4 6 1027.6 1027.7 0.0
28/05:00am 6.0 3.4 4.1 88 0.8 S 7 9 4 5 1027.5 1027.6 0.0
28/04:30am 6.4 3.9 4.5 88 0.8 S 7 9 4 5 1027.4 1027.5 0.0
28/04:00am 6.8 5.6 4.5 85 1.0 CALM 0 0 0 0 1027.3 1027.4 0.0
28/03:30am 7.4 4.9 4.6 82 1.2 S 7 9 4 5 1027.4 1027.5 0.0
28/03:00am 7.6 4.7 4.4 80 1.4 S 9 15 5 8 1027.4 1027.5 0.0
28/02:30am 7.7 6.5 4.7 81 1.3 CALM 0 0 0 0 1027.4 1027.5 0.0
28/02:00am 7.8 5.5 4.6 80 1.4 S 6 7 3 4 1027.5 1027.6 0.0
28/01:30am 8.2 5.9 4.8 79 1.5 S 6 7 3 4 1027.6 1027.7 0.0
28/01:00am 8.8 6.4 4.5 74 1.9 S 6 7 3 4 1027.6 1027.7 0.0
28/12:30am 9.3 6.8 4.5 72 2.1 S 7 9 4 5 1027.7 1027.8 0.0
28/12:00am 10.3 7.4 4.5 67 2.6 S 9 9 5 5 1027.7 1027.8 0.0
 
Date/Time
EST
Temp
°C
App
Temp
°C
Dew
Point
Rel
Hum
%
Delta-T
°C
Wind Press
QNH
hPa
Press
MSL
hPa
Rain
since 9 am
mm
Dir
 
Spd
km/h
Gust
km/h
Spd
kts
Gust
kts
27/11:30pm 9.9 7.4 4.7 70 2.3 SSE 7 7 4 4 1027.8 1027.9 0.0
27/11:00pm 10.8 8.5 4.8 66 2.7 E 6 7 3 4 1027.7 1027.8 0.0
27/10:30pm 11.6 9.1 4.5 61 3.2 ESE 7 9 4 5 1027.5 1027.6 0.0

Other Formats:

Comma delimited format used in spreadsheet applications
http://www.bom.gov.au/fwo/IDV60801/IDV60801.94693.axf

JavaScript Object Notation format (JSON) in row-major order
http://www.bom.gov.au/fwo/IDV60801/IDV60801.94693.json